createdAt,value
2018-02-09T00:00:59.277Z,48.40
2018-02-09T00:03:27.594Z,48.50
2018-02-09T00:05:55.881Z,48.50
2018-02-09T00:08:25.070Z,48.50
2018-02-09T00:10:53.354Z,48.60
2018-02-09T00:16:29.346Z,48.60
2018-02-09T00:18:57.983Z,48.70
2018-02-09T00:21:26.248Z,48.60
2018-02-09T00:23:54.961Z,48.60
2018-02-09T00:26:23.290Z,48.80
2018-02-09T00:28:51.579Z,48.70
2018-02-09T00:31:20.702Z,48.70
2018-02-09T00:33:48.979Z,48.70
2018-02-09T00:36:18.532Z,48.70
2018-02-09T00:38:46.917Z,48.70
2018-02-09T00:41:15.461Z,48.70
2018-02-09T00:43:43.733Z,48.70
2018-02-09T00:46:13.638Z,49.00
2018-02-09T00:48:42.910Z,48.80
2018-02-09T00:51:11.211Z,48.80
2018-02-09T00:53:39.790Z,48.80
2018-02-09T00:56:12.893Z,48.80
2018-02-09T00:58:42.624Z,48.80
2018-02-09T01:01:11.013Z,48.80
2018-02-09T01:03:39.333Z,49.00
2018-02-09T01:06:07.831Z,49.00
2018-02-09T01:11:15.834Z,49.00
2018-02-09T01:13:44.102Z,49.00
2018-02-09T01:19:12.395Z,49.10
2018-02-09T01:21:41.414Z,49.20
2018-02-09T01:24:09.670Z,49.20
2018-02-09T01:26:37.925Z,49.30
2018-02-09T01:29:06.245Z,49.20
2018-02-09T01:31:34.505Z,49.20
2018-02-09T01:34:03.572Z,49.50
2018-02-09T01:36:32.506Z,49.90
2018-02-09T01:39:00.922Z,49.40
2018-02-09T01:41:29.221Z,49.50
2018-02-09T01:43:57.793Z,49.50
2018-02-09T01:46:26.041Z,49.50
2018-02-09T01:48:54.313Z,49.40
2018-02-09T01:51:22.645Z,49.50
2018-02-09T01:53:50.908Z,49.50
2018-02-09T01:56:20.366Z,49.60
2018-02-09T01:58:48.743Z,49.60
2018-02-09T02:01:17.021Z,49.60
2018-02-09T02:03:45.314Z,49.60
2018-02-09T02:06:13.575Z,49.60
2018-02-09T02:08:43.988Z,49.60
2018-02-09T02:11:12.338Z,49.60
2018-02-09T02:13:41.661Z,49.60
2018-02-09T02:16:10.445Z,49.60
2018-02-09T02:18:38.725Z,49.60
2018-02-09T02:21:07.081Z,49.60
2018-02-09T02:23:35.345Z,49.70
2018-02-09T02:26:04.392Z,50.30
2018-02-09T02:28:32.752Z,49.60
2018-02-09T02:31:01.098Z,49.80
2018-02-09T02:33:29.421Z,49.80
2018-02-09T02:35:58.093Z,49.90
2018-02-09T02:38:26.371Z,49.80
2018-02-09T02:40:54.646Z,49.80
2018-02-09T02:43:22.954Z,49.80
2018-02-09T02:45:51.240Z,49.80
2018-02-09T02:48:19.540Z,49.80
2018-02-09T02:50:48.166Z,49.80
2018-02-09T02:53:16.463Z,49.80
2018-02-09T02:55:45.798Z,49.80
2018-02-09T02:58:14.394Z,49.80
2018-02-09T03:00:42.998Z,49.90
2018-02-09T03:03:11.310Z,49.90
2018-02-09T03:05:39.797Z,50.00
2018-02-09T03:08:08.078Z,50.00
2018-02-09T03:10:36.359Z,49.90
2018-02-09T03:13:04.679Z,50.00
2018-02-09T03:15:33.219Z,50.60
2018-02-09T03:18:01.484Z,50.10
2018-02-09T03:20:30.435Z,50.00
2018-02-09T03:22:58.741Z,50.00
2018-02-09T03:25:27.805Z,50.00
2018-02-09T03:27:58.059Z,50.00
2018-02-09T03:30:26.422Z,49.90
2018-02-09T03:32:55.337Z,50.60
2018-02-09T03:35:23.639Z,50.00
2018-02-09T03:37:52.238Z,50.00
2018-02-09T03:40:20.502Z,50.00
2018-02-09T03:42:48.806Z,50.00
2018-02-09T03:45:17.092Z,50.00
2018-02-09T03:47:45.361Z,50.00
2018-02-09T03:50:13.678Z,50.00
2018-02-09T03:52:41.931Z,50.10
2018-02-09T03:55:10.243Z,50.00
2018-02-09T03:57:39.117Z,50.10
2018-02-09T04:00:08.449Z,50.10
2018-02-09T04:02:36.739Z,50.20
2018-02-09T04:05:05.030Z,50.20
2018-02-09T04:07:33.325Z,50.80
2018-02-09T04:10:02.536Z,50.20
2018-02-09T04:12:30.911Z,50.10
2018-02-09T04:14:59.191Z,50.30
2018-02-09T04:17:27.775Z,50.20
2018-02-09T04:19:56.035Z,50.30
2018-02-09T04:22:24.402Z,50.30
2018-02-09T04:24:52.712Z,50.40
2018-02-09T04:27:21.336Z,50.30
2018-02-09T04:29:49.737Z,50.40
2018-02-09T04:32:17.986Z,50.50
2018-02-09T04:34:46.549Z,50.40
2018-02-09T04:37:14.839Z,50.40
2018-02-09T04:39:43.156Z,50.40
2018-02-09T04:42:11.436Z,50.40
2018-02-09T04:44:39.821Z,50.50
2018-02-09T04:47:08.297Z,50.50
2018-02-09T04:49:36.701Z,50.50
2018-02-09T04:52:05.030Z,50.50
2018-02-09T04:54:33.300Z,50.40
2018-02-09T04:57:04.914Z,50.30
2018-02-09T04:59:33.190Z,50.30
2018-02-09T05:02:01.436Z,50.30
2018-02-09T05:04:29.737Z,50.40
2018-02-09T05:06:58.003Z,50.40
2018-02-09T05:09:28.547Z,50.50
2018-02-09T05:11:56.897Z,50.50
2018-02-09T05:14:25.466Z,50.70
2018-02-09T05:16:53.810Z,50.60
2018-02-09T05:19:22.061Z,50.60
2018-02-09T05:21:50.351Z,50.10
2018-02-09T05:24:20.748Z,50.60
2018-02-09T05:26:49.053Z,50.60
2018-02-09T05:29:17.326Z,50.70
2018-02-09T05:31:45.983Z,50.60
2018-02-09T05:34:14.402Z,50.70
2018-02-09T05:36:43.033Z,50.70
2018-02-09T05:39:11.299Z,50.70
2018-02-09T05:41:40.323Z,50.80
2018-02-09T05:44:08.624Z,50.70
2018-02-09T05:46:36.941Z,51.30
2018-02-09T05:49:05.990Z,50.80
2018-02-09T05:51:34.276Z,50.70
2018-02-09T05:54:02.797Z,50.80
2018-02-09T05:56:31.486Z,50.80
2018-02-09T05:59:00.908Z,50.80
2018-02-09T06:01:29.173Z,50.80
2018-02-09T06:03:57.455Z,50.80
2018-02-09T06:06:26.537Z,50.90
2018-02-09T06:08:55.586Z,50.90
2018-02-09T06:11:23.877Z,50.80
2018-02-09T06:13:52.128Z,50.80
2018-02-09T06:16:20.415Z,50.90
2018-02-09T06:18:48.683Z,50.90
2018-02-09T06:21:18.167Z,51.10
2018-02-09T06:23:46.932Z,51.10
2018-02-09T06:26:15.193Z,51.20
2018-02-09T06:28:43.490Z,51.70
2018-02-09T06:31:12.519Z,51.20
2018-02-09T06:33:41.608Z,51.10
2018-02-09T06:36:09.889Z,51.10
2018-02-09T06:38:38.586Z,51.20
2018-02-09T06:41:07.171Z,51.20
2018-02-09T06:43:35.498Z,51.90
2018-02-09T06:46:03.873Z,51.30
2018-02-09T06:48:32.277Z,51.40
2018-02-09T06:51:00.657Z,51.30
2018-02-09T06:53:28.948Z,51.40
2018-02-09T06:55:57.253Z,51.30
2018-02-09T06:58:25.518Z,51.30
2018-02-09T07:00:54.296Z,51.30
2018-02-09T07:03:22.574Z,51.20
2018-02-09T07:05:50.843Z,51.30
2018-02-09T07:08:20.666Z,51.30
2018-02-09T07:10:48.927Z,51.40
2018-02-09T07:13:18.013Z,51.40
2018-02-09T07:15:46.279Z,51.40
2018-02-09T07:18:17.370Z,51.80
2018-02-09T07:20:45.662Z,51.50
2018-02-09T07:23:13.963Z,51.50
2018-02-09T07:25:42.440Z,51.60
2018-02-09T07:28:11.277Z,51.60
2018-02-09T07:30:40.296Z,51.70
2018-02-09T07:33:08.580Z,51.70
2018-02-09T07:35:36.869Z,51.70
2018-02-09T07:38:06.941Z,51.70
2018-02-09T07:40:35.290Z,51.70
2018-02-09T07:43:04.503Z,51.70
2018-02-09T07:45:33.305Z,51.80
2018-02-09T07:48:02.362Z,52.40
2018-02-09T07:50:30.719Z,51.70
2018-02-09T07:52:59.014Z,51.80
2018-02-09T07:55:27.301Z,51.80
2018-02-09T07:57:55.667Z,51.80
2018-02-09T08:00:23.925Z,51.80
2018-02-09T08:02:52.951Z,51.90
2018-02-09T08:05:21.293Z,51.90
2018-02-09T08:07:49.988Z,52.10
2018-02-09T08:10:18.255Z,52.10
2018-02-09T08:12:46.533Z,52.10
2018-02-09T08:15:17.998Z,52.20
2018-02-09T08:17:46.303Z,52.20
2018-02-09T08:20:14.569Z,52.20
2018-02-09T08:22:42.832Z,52.20
2018-02-09T08:25:11.453Z,52.20
2018-02-09T08:27:43.631Z,52.30
2018-02-09T08:30:13.157Z,52.30
2018-02-09T08:32:41.719Z,52.50
2018-02-09T08:35:12.286Z,52.60
2018-02-09T08:37:42.598Z,53.20
2018-02-09T08:40:11.380Z,52.40
2018-02-09T08:42:39.777Z,52.50
2018-02-09T08:45:08.825Z,52.10
2018-02-09T08:47:37.136Z,52.10
2018-02-09T08:50:06.178Z,52.10
2018-02-09T08:52:35.112Z,52.00
2018-02-09T08:55:03.397Z,51.90
2018-02-09T08:57:32.432Z,52.10
2018-02-09T09:00:00.797Z,51.80
2018-02-09T09:02:29.105Z,52.00
2018-02-09T09:04:57.410Z,51.90
2018-02-09T09:07:25.664Z,51.90
2018-02-09T09:09:54.288Z,51.80
2018-02-09T09:12:22.611Z,51.90
2018-02-09T09:14:52.031Z,51.90
2018-02-09T09:17:20.493Z,51.80
2018-02-09T09:19:48.759Z,51.90
2018-02-09T09:22:17.094Z,51.80
2018-02-09T09:24:45.382Z,51.60
2018-02-09T09:27:13.973Z,51.60
2018-02-09T09:29:43.013Z,52.20
2018-02-09T09:32:11.285Z,51.60
2018-02-09T09:34:39.623Z,51.60
2018-02-09T09:37:07.875Z,51.60
2018-02-09T09:39:36.162Z,51.30
2018-02-09T09:42:05.221Z,51.00
2018-02-09T09:44:33.936Z,51.10
2018-02-09T09:47:02.272Z,51.10
2018-02-09T09:49:30.556Z,51.00
2018-02-09T09:51:59.625Z,51.00
2018-02-09T09:54:27.898Z,50.90
2018-02-09T09:56:56.221Z,50.90
2018-02-09T09:59:24.492Z,51.10
2018-02-09T10:01:52.847Z,51.00
2018-02-09T10:04:21.920Z,51.00
2018-02-09T10:06:50.179Z,50.90
2018-02-09T10:09:18.515Z,50.70
2018-02-09T10:11:47.545Z,50.80
2018-02-09T10:14:15.859Z,50.80
2018-02-09T10:16:44.147Z,50.80
2018-02-09T10:19:13.664Z,50.60
2018-02-09T10:21:41.944Z,50.60
2018-02-09T10:24:10.280Z,50.70
2018-02-09T10:26:38.620Z,50.50
2018-02-09T10:29:07.040Z,50.40
2018-02-09T10:31:35.331Z,50.50
2018-02-09T10:34:03.628Z,50.50
2018-02-09T10:36:31.948Z,50.50
2018-02-09T10:39:00.227Z,50.50
2018-02-09T10:41:28.596Z,50.40
2018-02-09T10:43:56.916Z,50.30
2018-02-09T10:46:25.177Z,50.30
2018-02-09T10:48:54.259Z,49.70
2018-02-09T10:51:22.588Z,49.70
2018-02-09T10:53:50.851Z,49.50
2018-02-09T10:56:19.109Z,49.30
2018-02-09T10:58:47.428Z,49.50
2018-02-09T11:01:22.170Z,49.70
2018-02-09T11:03:50.462Z,49.70
2018-02-09T11:06:18.725Z,49.70
2018-02-09T11:08:47.038Z,49.70
2018-02-09T11:11:17.178Z,49.80
2018-02-09T11:13:45.472Z,49.40
2018-02-09T11:16:13.758Z,49.20
2018-02-09T11:18:42.024Z,49.10
2018-02-09T11:21:10.343Z,49.10
2018-02-09T11:23:38.644Z,49.20
2018-02-09T11:26:06.909Z,49.30
2018-02-09T11:28:35.207Z,49.00
2018-02-09T11:31:03.493Z,49.30
2018-02-09T11:33:31.849Z,49.20
2018-02-09T11:36:00.086Z,49.20
2018-02-09T11:38:28.991Z,49.20
2018-02-09T11:40:57.438Z,49.10
2018-02-09T11:43:25.769Z,49.10
2018-02-09T11:45:54.131Z,49.20
2018-02-09T11:48:22.671Z,49.10
2018-02-09T11:50:54.871Z,49.10
2018-02-09T11:53:23.707Z,49.70
2018-02-09T11:55:52.027Z,50.30
2018-02-09T11:58:21.325Z,50.60
2018-02-09T12:00:49.650Z,50.50
2018-02-09T12:03:17.961Z,49.00
2018-02-09T12:05:46.266Z,48.00
2018-02-09T12:08:14.585Z,47.50
2018-02-09T12:10:42.898Z,46.20
2018-02-09T12:13:11.206Z,46.10
2018-02-09T12:15:40.399Z,45.60
2018-02-09T12:18:08.717Z,45.20
2018-02-09T12:20:37.061Z,43.80
2018-02-09T12:23:05.753Z,43.40
2018-02-09T12:25:34.046Z,42.40
2018-02-09T12:28:03.136Z,40.50
2018-02-09T12:30:32.316Z,39.90
2018-02-09T12:33:00.604Z,39.80
2018-02-09T12:35:29.680Z,37.80
2018-02-09T12:37:57.989Z,37.60
2018-02-09T12:40:27.059Z,36.60
2018-02-09T12:42:55.348Z,36.50
2018-02-09T12:45:23.734Z,35.80
2018-02-09T12:47:52.790Z,33.90
2018-02-09T12:50:21.115Z,33.80
2018-02-09T12:52:50.207Z,33.10
2018-02-09T12:55:18.481Z,33.00
2018-02-09T12:57:47.570Z,32.50
2018-02-09T13:00:15.863Z,32.40
2018-02-09T13:02:44.955Z,32.60
2018-02-09T13:05:13.258Z,32.50
2018-02-09T13:07:41.561Z,32.30
2018-02-09T13:10:09.877Z,31.80
2018-02-09T13:12:50.199Z,31.20
2018-02-09T13:15:18.485Z,30.60
2018-02-09T13:17:46.778Z,30.70
2018-02-09T13:20:15.089Z,29.90
2018-02-09T13:22:55.901Z,29.70
2018-02-09T13:25:24.185Z,29.70
2018-02-09T13:27:52.501Z,29.60
2018-02-09T13:30:20.849Z,29.50
2018-02-09T13:33:00.786Z,29.30
2018-02-09T13:35:29.111Z,29.20
2018-02-09T13:37:57.397Z,28.70
2018-02-09T13:40:26.472Z,28.40
2018-02-09T13:42:54.773Z,28.20
2018-02-09T13:45:23.086Z,27.90
2018-02-09T13:47:51.389Z,28.10
2018-02-09T13:50:19.664Z,27.80
2018-02-09T13:52:47.987Z,27.60
2018-02-09T13:55:16.295Z,27.60
2018-02-09T13:57:44.569Z,27.90
2018-02-09T14:00:12.874Z,28.20
2018-02-09T14:02:41.164Z,28.40
2018-02-09T14:05:09.487Z,28.70
2018-02-09T14:07:38.533Z,29.30
2018-02-09T14:10:06.841Z,29.20
2018-02-09T14:12:35.910Z,29.60
2018-02-09T14:15:04.238Z,30.00
2018-02-09T14:17:33.314Z,31.60
2018-02-09T14:20:01.597Z,31.60
2018-02-09T14:22:29.918Z,32.10
2018-02-09T14:24:58.194Z,32.40
2018-02-09T14:27:26.521Z,32.90
2018-02-09T14:29:54.905Z,33.20
2018-02-09T14:32:23.965Z,33.60
2018-02-09T14:34:53.802Z,33.90
2018-02-09T14:37:22.077Z,33.90
2018-02-09T14:39:50.471Z,34.20
2018-02-09T14:42:18.761Z,34.40
2018-02-09T14:44:47.843Z,35.00
2018-02-09T14:47:16.120Z,34.90
2018-02-09T14:49:44.401Z,35.10
2018-02-09T14:52:13.515Z,35.50
2018-02-09T14:54:42.571Z,35.60
2018-02-09T14:57:10.887Z,35.70
2018-02-09T14:59:39.973Z,36.00
2018-02-09T15:02:08.545Z,36.10
2018-02-09T15:04:36.867Z,36.20
2018-02-09T15:07:05.150Z,36.30
2018-02-09T15:09:33.481Z,36.50
2018-02-09T15:12:01.751Z,36.70
2018-02-09T15:14:30.066Z,36.80
2018-02-09T15:16:58.353Z,36.80
2018-02-09T15:19:26.684Z,37.00
2018-02-09T15:21:54.977Z,37.10
2018-02-09T15:24:23.299Z,37.20
2018-02-09T15:26:51.624Z,37.30
2018-02-09T15:29:19.900Z,37.50
2018-02-09T15:31:48.226Z,37.60
2018-02-09T15:34:16.532Z,37.70
2018-02-09T15:36:45.478Z,37.90
2018-02-09T15:39:14.651Z,37.90
2018-02-09T15:41:43.798Z,38.10
2018-02-09T15:44:15.015Z,38.50
2018-02-09T16:02:14.108Z,39.20
2018-02-09T16:04:45.389Z,39.20
2018-02-09T16:07:14.686Z,39.30
2018-02-09T16:09:43.794Z,39.40
2018-02-09T16:12:13.944Z,39.40
2018-02-09T16:14:42.262Z,39.90
2018-02-09T16:17:10.589Z,39.70
2018-02-09T16:19:43.502Z,39.90
2018-02-09T16:22:12.382Z,40.00
2018-02-09T16:27:44.944Z,40.10
2018-02-09T16:30:33.327Z,40.60
2018-02-09T16:33:02.571Z,40.20
2018-02-09T16:35:31.235Z,40.30
2018-02-09T16:37:59.546Z,41.00
2018-02-09T16:40:28.616Z,40.60
2018-02-09T16:42:56.922Z,40.60
2018-02-09T16:45:25.922Z,40.80
2018-02-09T16:47:55.008Z,41.00
2018-02-09T16:50:23.317Z,40.90
2018-02-09T16:52:51.676Z,41.00
2018-02-09T16:55:20.794Z,41.10
2018-02-09T16:57:49.152Z,41.20
2018-02-09T17:00:18.232Z,41.20
2018-02-09T17:02:46.540Z,41.20
2018-02-09T17:05:14.921Z,41.30
2018-02-09T17:07:43.219Z,41.40
2018-02-09T17:10:11.858Z,41.50
2018-02-09T17:12:40.189Z,41.50
2018-02-09T17:15:08.803Z,41.60
2018-02-09T17:17:37.149Z,41.70
2018-02-09T17:20:05.908Z,41.70
2018-02-09T17:22:34.954Z,42.00
2018-02-09T17:25:03.499Z,42.00
2018-02-09T17:27:31.879Z,42.20
2018-02-09T17:30:02.169Z,42.20
2018-02-09T17:32:30.508Z,42.30
2018-02-09T17:34:58.826Z,42.40
2018-02-09T17:37:27.936Z,42.70
2018-02-09T17:39:57.003Z,42.60
2018-02-09T17:42:25.320Z,42.60
2018-02-09T17:44:54.527Z,42.80
2018-02-09T17:47:22.888Z,42.80
2018-02-09T17:49:51.220Z,42.90
2018-02-09T17:52:19.548Z,43.10
2018-02-09T17:54:47.840Z,43.10
2018-02-09T17:57:16.161Z,43.80
2018-02-09T17:59:44.495Z,43.30
2018-02-09T18:02:13.546Z,43.30
2018-02-09T18:04:41.850Z,43.20
2018-02-09T18:07:10.207Z,43.40
2018-02-09T18:09:38.477Z,43.50
2018-02-09T18:12:07.553Z,43.50
2018-02-09T18:14:36.694Z,43.50
2018-02-09T18:17:05.081Z,43.50
2018-02-09T18:19:33.453Z,43.50
2018-02-09T18:22:01.801Z,43.50
2018-02-09T18:24:30.212Z,43.60
2018-02-09T18:26:58.470Z,43.80
2018-02-09T18:29:26.775Z,43.80
2018-02-09T18:31:55.833Z,43.80
2018-02-09T18:34:24.201Z,44.00
2018-02-09T18:36:52.469Z,43.90
2018-02-09T18:39:20.859Z,44.00
2018-02-09T18:41:49.158Z,44.00
2018-02-09T18:44:17.561Z,44.00
2018-02-09T18:46:45.910Z,44.30
2018-02-09T18:49:14.244Z,44.40
2018-02-09T18:51:43.424Z,44.70
2018-02-09T18:54:12.549Z,45.30
2018-02-09T18:56:41.635Z,44.90
2018-02-09T18:59:09.960Z,45.10
2018-02-09T19:01:38.862Z,45.30
2018-02-09T19:04:07.211Z,45.40
2018-02-09T19:06:35.514Z,45.50
2018-02-09T19:09:03.811Z,45.80
2018-02-09T19:11:32.248Z,45.60
2018-02-09T19:14:00.552Z,45.70
2018-02-09T19:16:29.734Z,45.70
2018-02-09T19:18:58.081Z,45.70
2018-02-09T19:21:26.529Z,45.60
2018-02-09T19:23:59.623Z,45.70
2018-02-09T19:26:27.898Z,45.70
2018-02-09T19:28:56.206Z,45.60
2018-02-09T19:31:24.557Z,45.70
2018-02-09T19:33:53.393Z,46.40
2018-02-09T19:36:22.614Z,45.50
2018-02-09T19:38:50.943Z,45.70
2018-02-09T19:41:20.150Z,45.70
2018-02-09T19:43:48.460Z,45.60
2018-02-09T19:46:16.770Z,45.60
2018-02-09T19:48:45.092Z,45.60
2018-02-09T19:51:13.623Z,45.50
2018-02-09T19:53:41.984Z,45.50
2018-02-09T19:56:10.294Z,45.40
2018-02-09T19:58:38.658Z,45.40
2018-02-09T20:01:07.068Z,45.30
2018-02-09T20:03:35.392Z,45.30
2018-02-09T20:06:07.873Z,45.30
2018-02-09T20:08:39.645Z,45.30
2018-02-09T20:11:08.537Z,45.30
2018-02-09T20:13:36.865Z,45.30
2018-02-09T20:16:05.161Z,45.40
2018-02-09T20:18:35.103Z,45.40
2018-02-09T20:21:03.507Z,45.40
2018-02-09T20:23:31.843Z,45.40
2018-02-09T20:26:00.948Z,45.30
2018-02-09T20:28:29.263Z,45.40
2018-02-09T20:30:57.536Z,45.50
2018-02-09T20:33:25.896Z,45.60
2018-02-09T20:35:54.244Z,45.40
2018-02-09T20:38:23.405Z,45.70
2018-02-09T20:40:51.780Z,45.60
2018-02-09T20:43:22.367Z,45.60
2018-02-09T20:45:51.562Z,45.70
2018-02-09T20:48:20.610Z,45.70
2018-02-09T20:50:48.910Z,45.70
2018-02-09T20:53:17.214Z,45.70
2018-02-09T20:55:46.297Z,45.60
2018-02-09T20:58:14.576Z,45.60
2018-02-09T21:00:42.912Z,45.60
2018-02-09T21:03:11.249Z,45.60
2018-02-09T21:05:40.840Z,45.60
2018-02-09T21:08:11.769Z,46.30
2018-02-09T21:10:40.268Z,45.60
2018-02-09T21:13:09.444Z,45.60
2018-02-09T21:15:37.942Z,45.60
2018-02-09T21:18:06.329Z,45.60
2018-02-09T21:20:35.453Z,46.00
2018-02-09T21:23:04.802Z,45.60
2018-02-09T21:25:34.061Z,45.80
2018-02-09T21:28:02.361Z,45.80
2018-02-09T21:30:30.817Z,45.80
2018-02-09T21:32:59.122Z,45.80
2018-02-09T21:35:27.441Z,45.70
2018-02-09T21:37:56.494Z,45.90
2018-02-09T21:40:24.884Z,45.90
2018-02-09T21:42:53.236Z,46.10
2018-02-09T21:45:21.521Z,46.00
2018-02-09T21:47:49.916Z,46.10
2018-02-09T21:50:18.223Z,46.00
2018-02-09T21:52:46.561Z,46.10
2018-02-09T21:55:14.895Z,46.10
2018-02-09T21:57:44.062Z,46.20
2018-02-09T22:00:12.439Z,46.10
2018-02-09T22:02:40.734Z,46.10
2018-02-09T22:05:09.033Z,46.10
2018-02-09T22:07:38.077Z,46.10
2018-02-09T22:10:06.405Z,46.10
2018-02-09T22:12:35.476Z,46.20
2018-02-09T22:15:03.767Z,46.10
2018-02-09T22:17:32.820Z,45.90
2018-02-09T22:20:01.175Z,46.40
2018-02-09T22:22:29.567Z,46.40
2018-02-09T22:24:58.688Z,46.60
2018-02-09T22:27:26.944Z,46.50
2018-02-09T22:29:55.225Z,46.60
2018-02-09T22:32:23.538Z,46.60
2018-02-09T22:34:51.838Z,46.60
2018-02-09T22:37:20.911Z,47.30
2018-02-09T22:39:49.252Z,46.70
2018-02-09T22:42:17.558Z,47.30
2018-02-09T22:44:46.799Z,47.30
2018-02-09T22:47:15.102Z,46.70
2018-02-09T22:49:43.439Z,47.20
2018-02-09T22:52:12.047Z,46.80
2018-02-09T22:54:40.491Z,46.80
2018-02-09T22:57:08.769Z,46.80
2018-02-09T22:59:37.058Z,46.90
2018-02-09T23:02:05.583Z,47.00
2018-02-09T23:04:33.913Z,47.00
2018-02-09T23:07:02.206Z,46.90
2018-02-09T23:09:30.697Z,46.90
2018-02-09T23:11:58.988Z,47.00
2018-02-09T23:14:27.261Z,47.00
2018-02-09T23:16:55.654Z,47.00
2018-02-09T23:19:24.068Z,47.10
2018-02-09T23:21:52.471Z,47.20
2018-02-09T23:24:21.058Z,47.70
2018-02-09T23:26:49.402Z,47.30
2018-02-09T23:29:17.738Z,47.30
2018-02-09T23:31:46.093Z,47.40
2018-02-09T23:34:14.468Z,47.40
2018-02-09T23:36:42.845Z,47.60
2018-02-09T23:39:11.139Z,47.70
2018-02-09T23:41:39.445Z,47.90
2018-02-09T23:44:07.805Z,47.90
2018-02-09T23:46:36.141Z,47.90
2018-02-09T23:49:04.447Z,48.00
2018-02-09T23:51:32.881Z,48.00
2018-02-09T23:54:01.343Z,48.00
2018-02-09T23:56:30.431Z,48.10
2018-02-09T23:58:59.508Z,48.10
